createdAt,value
2023-04-14T00:02:23.100Z,68.50
2023-04-14T00:04:54.055Z,68.60
2023-04-14T00:07:21.552Z,68.40
2023-04-14T00:09:48.568Z,68.70
2023-04-14T00:12:15.578Z,68.80
2023-04-14T00:14:43.321Z,68.90
2023-04-14T00:17:10.853Z,69.00
2023-04-14T00:19:37.982Z,69.20
2023-04-14T00:22:05.420Z,69.40
2023-04-14T00:24:32.652Z,69.30
2023-04-14T00:26:59.744Z,69.20
2023-04-14T00:29:26.709Z,69.00
2023-04-14T00:31:53.735Z,68.60
2023-04-14T00:34:20.728Z,68.40
2023-04-14T00:36:47.710Z,68.50
2023-04-14T00:39:14.701Z,68.70
2023-04-14T00:41:43.479Z,68.70
2023-04-14T00:44:10.592Z,68.90
2023-04-14T00:46:37.689Z,69.00
2023-04-14T00:49:04.822Z,68.90
2023-04-14T00:51:33.914Z,69.00
2023-04-14T00:54:05.589Z,69.10
2023-04-14T00:56:33.484Z,69.50
2023-04-14T00:59:02.330Z,69.70
2023-04-14T01:01:30.590Z,69.90
2023-04-14T01:03:58.069Z,70.00
2023-04-14T01:06:28.342Z,70.20
2023-04-14T01:08:56.461Z,70.10
2023-04-14T01:11:32.443Z,69.90
2023-04-14T01:14:13.386Z,69.80
2023-04-14T01:16:45.405Z,69.80
2023-04-14T01:19:46.978Z,69.70
2023-04-14T01:22:18.834Z,69.80
2023-04-14T01:25:23.871Z,69.70
2023-04-14T01:28:30.242Z,69.70
2023-04-14T01:31:23.220Z,69.80
2023-04-14T01:34:13.263Z,69.80
2023-04-14T01:36:58.526Z,69.60
2023-04-14T01:39:32.095Z,69.50
2023-04-14T01:41:59.154Z,69.40
2023-04-14T01:44:28.777Z,69.40
2023-04-14T01:47:02.495Z,69.50
2023-04-14T01:49:32.061Z,69.50
2023-04-14T01:52:01.451Z,69.40
2023-04-14T01:54:31.857Z,69.60
2023-04-14T01:57:01.882Z,69.80
2023-04-14T01:59:32.282Z,69.80
2023-04-14T02:02:01.745Z,69.80
2023-04-14T02:04:31.122Z,69.90
2023-04-14T02:07:00.409Z,70.20
2023-04-14T02:09:29.055Z,70.00
2023-04-14T02:11:57.301Z,70.20
2023-04-14T02:14:25.701Z,70.40
2023-04-14T02:16:57.327Z,70.40
2023-04-14T02:19:25.367Z,70.60
2023-04-14T02:21:54.318Z,70.60
2023-04-14T02:24:21.524Z,70.80
2023-04-14T02:26:57.643Z,70.90
2023-04-14T02:29:27.068Z,70.90
2023-04-14T02:32:01.412Z,71.10
2023-04-14T02:34:32.088Z,71.30
2023-04-14T02:37:03.919Z,71.30
2023-04-14T02:39:37.350Z,71.20
2023-04-14T02:42:12.767Z,71.10
2023-04-14T02:44:47.522Z,71.20
2023-04-14T02:47:29.626Z,71.20
2023-04-14T02:50:01.866Z,71.20
2023-04-14T02:52:32.805Z,71.30
2023-04-14T02:55:02.436Z,71.40
2023-04-14T02:57:30.862Z,71.30
2023-04-14T02:59:59.321Z,71.40
2023-04-14T03:02:28.576Z,71.40
2023-04-14T03:05:04.207Z,71.50
2023-04-14T03:07:42.158Z,71.50
2023-04-14T03:10:11.937Z,71.50
2023-04-14T03:12:42.178Z,71.50
2023-04-14T03:15:10.647Z,71.40
2023-04-14T03:17:38.190Z,71.40
2023-04-14T03:20:07.637Z,71.50
2023-04-14T03:22:40.710Z,71.60
2023-04-14T03:25:12.514Z,71.50
2023-04-14T03:27:44.246Z,71.50
2023-04-14T03:30:13.282Z,71.70
2023-04-14T03:32:42.390Z,71.80
2023-04-14T03:35:15.055Z,71.90
2023-04-14T03:37:44.831Z,71.90
2023-04-14T03:40:14.487Z,72.00
2023-04-14T03:42:45.961Z,72.00
2023-04-14T03:45:18.177Z,71.80
2023-04-14T03:47:45.674Z,71.70
2023-04-14T03:50:15.523Z,71.60
2023-04-14T03:52:43.752Z,71.70
2023-04-14T03:55:12.610Z,72.00
2023-04-14T03:57:43.916Z,72.00
2023-04-14T04:00:15.336Z,71.80
2023-04-14T04:02:45.869Z,71.80
2023-04-14T04:05:13.580Z,71.80
2023-04-14T04:07:43.051Z,71.90
2023-04-14T04:10:12.675Z,71.80
2023-04-14T04:12:43.015Z,71.90
2023-04-14T04:15:11.487Z,72.10
2023-04-14T04:17:41.608Z,72.20
2023-04-14T04:20:14.171Z,72.10
2023-04-14T04:22:44.782Z,72.00
2023-04-14T04:25:13.070Z,72.00
2023-04-14T04:27:46.324Z,72.00
2023-04-14T04:30:18.303Z,72.00
2023-04-14T04:32:45.645Z,71.90
2023-04-14T04:35:13.286Z,71.90
2023-04-14T04:37:43.540Z,72.10
2023-04-14T04:40:11.916Z,72.20
2023-04-14T04:42:42.706Z,72.10
2023-04-14T04:45:13.012Z,72.10
2023-04-14T04:47:41.639Z,71.90
2023-04-14T04:50:09.089Z,71.90
2023-04-14T04:52:36.054Z,71.90
2023-04-14T04:55:03.202Z,71.90
2023-04-14T04:57:30.116Z,71.90
2023-04-14T04:59:57.410Z,72.00
2023-04-14T05:02:24.948Z,72.00
2023-04-14T05:04:52.531Z,72.20
2023-04-14T05:07:19.851Z,72.50
2023-04-14T05:09:46.806Z,72.60
2023-04-14T05:12:13.687Z,72.60
2023-04-14T05:14:40.680Z,72.70
2023-04-14T05:17:07.619Z,72.70
2023-04-14T05:19:34.617Z,72.80
2023-04-14T05:22:02.006Z,72.90
2023-04-14T05:24:29.041Z,72.90
2023-04-14T05:27:13.157Z,72.80
2023-04-14T05:29:41.876Z,72.80
2023-04-14T05:32:09.056Z,72.80
2023-04-14T05:34:36.188Z,73.00
2023-04-14T05:37:03.157Z,73.10
2023-04-14T05:39:30.145Z,73.10
2023-04-14T05:41:57.176Z,73.20
2023-04-14T05:44:24.397Z,73.20
2023-04-14T05:46:51.739Z,73.10
2023-04-14T05:49:18.751Z,72.90
2023-04-14T05:51:46.016Z,72.60
2023-04-14T05:54:12.959Z,72.60
2023-04-14T05:56:40.264Z,72.50
2023-04-14T05:59:07.156Z,72.60
2023-04-14T06:01:34.083Z,72.50
2023-04-14T06:04:02.734Z,72.60
2023-04-14T06:06:32.629Z,72.60
2023-04-14T06:08:59.907Z,72.90
2023-04-14T06:11:26.944Z,73.00
2023-04-14T06:13:53.842Z,73.20
2023-04-14T06:16:27.182Z,73.20
2023-04-14T06:18:55.264Z,73.20
2023-04-14T06:21:22.243Z,73.10
2023-04-14T06:23:49.273Z,72.80
2023-04-14T06:26:16.648Z,72.60
2023-04-14T06:28:44.045Z,72.10
2023-04-14T06:31:11.373Z,72.40
2023-04-14T06:33:38.412Z,71.30
2023-04-14T06:36:05.814Z,70.90
2023-04-14T06:38:32.940Z,70.60
2023-04-14T06:40:59.894Z,70.30
2023-04-14T06:43:28.884Z,69.90
2023-04-14T06:45:56.070Z,69.60
2023-04-14T06:48:23.413Z,69.70
2023-04-14T06:50:57.162Z,69.10
2023-04-14T06:53:24.178Z,68.10
2023-04-14T06:55:58.968Z,67.20
2023-04-14T06:58:28.013Z,66.20
2023-04-14T07:00:59.222Z,65.00
2023-04-14T07:03:28.049Z,63.60
2023-04-14T07:05:55.250Z,62.50
2023-04-14T07:08:22.316Z,61.30
2023-04-14T07:10:49.284Z,59.90
2023-04-14T07:13:16.348Z,59.40
2023-04-14T07:15:47.826Z,58.60
2023-04-14T07:18:15.479Z,57.70
2023-04-14T07:20:42.418Z,56.60
2023-04-14T07:23:09.675Z,55.80
2023-04-14T07:25:36.774Z,54.90
2023-04-14T07:28:04.691Z,54.50
2023-04-14T07:30:31.920Z,53.80
2023-04-14T07:33:02.680Z,53.10
2023-04-14T07:35:29.912Z,52.70
2023-04-14T07:37:56.974Z,52.10
2023-04-14T07:40:24.553Z,51.30
2023-04-14T07:42:52.569Z,50.70
2023-04-14T07:45:19.559Z,50.10
2023-04-14T07:47:47.020Z,49.60
2023-04-14T07:50:14.024Z,49.50
2023-04-14T07:52:43.937Z,49.10
2023-04-14T07:55:11.735Z,49.00
2023-04-14T07:57:38.632Z,50.10
2023-04-14T08:00:07.296Z,50.50
2023-04-14T08:02:39.507Z,49.50
2023-04-14T08:05:06.883Z,48.50
2023-04-14T08:07:33.799Z,47.20
2023-04-14T08:10:00.859Z,46.00
2023-04-14T08:12:29.041Z,45.10
2023-04-14T08:14:57.245Z,44.10
2023-04-14T08:17:25.530Z,44.10
2023-04-14T08:19:52.882Z,44.30
2023-04-14T08:22:20.433Z,44.30
2023-04-14T08:24:48.575Z,44.50
2023-04-14T08:27:16.003Z,43.50
2023-04-14T08:29:50.662Z,42.70
2023-04-14T08:32:22.162Z,42.60
2023-04-14T08:35:38.251Z,42.60
2023-04-14T08:37:39.841Z,42.70
2023-04-14T08:40:18.936Z,42.50
2023-04-14T08:42:47.194Z,41.80
2023-04-14T08:45:14.213Z,42.10
2023-04-14T08:47:46.168Z,41.10
2023-04-14T08:50:17.536Z,41.40
2023-04-14T08:52:47.072Z,42.00
2023-04-14T08:55:15.635Z,41.90
2023-04-14T08:57:44.229Z,40.80
2023-04-14T09:00:11.779Z,40.80
2023-04-14T09:02:40.690Z,41.10
2023-04-14T09:05:08.786Z,40.90
2023-04-14T09:07:36.561Z,40.40
2023-04-14T09:10:04.190Z,40.40
2023-04-14T09:12:33.770Z,40.20
2023-04-14T09:15:02.805Z,40.30
2023-04-14T09:17:30.947Z,40.10
2023-04-14T09:20:37.848Z,39.60
2023-04-14T09:22:46.056Z,39.10
2023-04-14T09:25:15.349Z,38.60
2023-04-14T09:27:42.878Z,37.90
2023-04-14T09:30:10.607Z,36.90
2023-04-14T09:32:38.940Z,35.90
2023-04-14T09:35:07.234Z,35.60
2023-04-14T09:37:48.734Z,34.60
2023-04-14T09:40:36.029Z,33.10
2023-04-14T09:43:02.910Z,31.80
2023-04-14T09:45:44.843Z,31.20
2023-04-14T09:48:16.340Z,30.00
2023-04-14T09:51:09.789Z,29.40
2023-04-14T09:53:41.202Z,28.10
2023-04-14T09:56:11.558Z,28.70
2023-04-14T09:58:40.533Z,29.30
2023-04-14T10:01:16.411Z,28.30
2023-04-14T10:03:46.524Z,27.80
2023-04-14T10:06:17.741Z,28.10
2023-04-14T10:08:48.721Z,28.10
2023-04-14T10:11:18.452Z,27.40
2023-04-14T10:13:47.219Z,27.10
2023-04-14T10:16:14.946Z,27.20
2023-04-14T10:18:42.955Z,27.10
2023-04-14T10:21:11.407Z,26.90
2023-04-14T10:23:39.667Z,26.70
2023-04-14T10:26:08.835Z,26.60
2023-04-14T10:28:37.575Z,26.20
2023-04-14T10:31:09.332Z,25.70
2023-04-14T10:33:39.454Z,25.20
2023-04-14T10:36:06.782Z,25.00
2023-04-14T10:38:44.195Z,25.00
2023-04-14T10:41:12.003Z,24.30
2023-04-14T10:43:40.388Z,24.60
2023-04-14T10:46:09.833Z,24.50
2023-04-14T10:48:41.582Z,23.50
2023-04-14T10:51:10.751Z,22.40
2023-04-14T10:53:41.593Z,22.90
2023-04-14T10:56:08.479Z,22.80
2023-04-14T10:58:36.535Z,22.80
2023-04-14T11:01:24.322Z,22.00
2023-04-14T11:03:53.321Z,21.60
2023-04-14T11:06:48.237Z,22.60
2023-04-14T11:09:39.113Z,21.80
2023-04-14T11:12:27.882Z,21.30
2023-04-14T11:15:04.832Z,21.00
2023-04-14T11:17:34.151Z,20.60
2023-04-14T11:20:01.343Z,20.00
2023-04-14T11:22:39.868Z,20.20
2023-04-14T11:25:08.576Z,20.10
2023-04-14T11:27:35.752Z,20.80
2023-04-14T11:30:03.992Z,19.90
2023-04-14T11:32:31.675Z,19.80
2023-04-14T11:35:07.716Z,19.40
2023-04-14T11:37:36.414Z,19.60
2023-04-14T11:40:05.579Z,19.70
2023-04-14T11:42:33.767Z,19.30
2023-04-14T11:45:02.903Z,18.80
2023-04-14T11:47:30.850Z,18.80
2023-04-14T11:50:02.155Z,19.30
2023-04-14T11:52:29.162Z,19.90
2023-04-14T11:54:56.396Z,20.30
2023-04-14T11:57:23.340Z,20.00
2023-04-14T11:59:50.790Z,18.80
2023-04-14T12:02:19.227Z,18.60
2023-04-14T12:04:47.505Z,18.60
2023-04-14T12:07:19.313Z,18.40
2023-04-14T12:09:50.540Z,18.60
2023-04-14T12:12:18.817Z,18.80
2023-04-14T12:14:48.662Z,18.90
2023-04-14T12:17:17.124Z,20.00
2023-04-14T12:19:45.136Z,21.10
2023-04-14T12:22:12.693Z,21.50
2023-04-14T12:24:45.169Z,22.10
2023-04-14T12:27:12.665Z,22.60
2023-04-14T12:29:40.858Z,22.20
2023-04-14T12:32:15.124Z,21.70
2023-04-14T12:34:52.352Z,21.90
2023-04-14T12:37:26.413Z,22.20
2023-04-14T12:39:57.225Z,21.50
2023-04-14T12:42:25.147Z,20.40
2023-04-14T12:44:56.203Z,19.30
2023-04-14T12:47:33.230Z,19.00
2023-04-14T12:50:02.293Z,18.90
2023-04-14T12:52:37.205Z,19.00
2023-04-14T12:55:05.807Z,18.90
2023-04-14T12:57:32.934Z,19.10
2023-04-14T13:00:05.240Z,19.50
2023-04-14T13:02:33.460Z,20.00
2023-04-14T13:05:00.571Z,19.70
2023-04-14T13:07:27.465Z,19.20
2023-04-14T13:09:54.394Z,18.90
2023-04-14T13:12:21.526Z,18.40
2023-04-14T13:14:48.462Z,18.40
2023-04-14T13:17:15.748Z,18.80
2023-04-14T13:19:42.704Z,19.40
2023-04-14T13:22:09.625Z,19.70
2023-04-14T13:24:36.691Z,20.40
2023-04-14T13:27:03.631Z,20.50
2023-04-14T13:29:33.064Z,20.40
2023-04-14T13:32:00.749Z,20.20
2023-04-14T13:34:28.205Z,20.30
2023-04-14T13:36:56.033Z,20.60
2023-04-14T13:39:23.047Z,21.10
2023-04-14T13:41:49.957Z,21.10
2023-04-14T13:44:18.503Z,20.60
2023-04-14T13:46:45.791Z,19.80
2023-04-14T13:49:13.038Z,19.60
2023-04-14T13:51:39.969Z,19.80
2023-04-14T13:54:07.020Z,20.10
2023-04-14T13:56:33.891Z,19.90
2023-04-14T13:59:01.231Z,19.10
2023-04-14T14:01:28.507Z,18.60
2023-04-14T14:03:56.169Z,18.30
2023-04-14T14:06:23.583Z,18.20
2023-04-14T14:09:05.220Z,18.20
2023-04-14T14:11:32.924Z,17.40
2023-04-14T14:14:00.231Z,17.40
2023-04-14T14:18:57.617Z,17.60
2023-04-14T14:21:24.646Z,17.40
2023-04-14T14:23:51.716Z,17.60
2023-04-14T14:26:18.785Z,17.30
2023-04-14T14:28:47.195Z,17.30
2023-04-14T14:31:15.330Z,16.70
2023-04-14T14:33:42.374Z,16.70
2023-04-14T14:36:09.314Z,16.70
2023-04-14T14:38:37.258Z,16.20
2023-04-14T14:41:04.970Z,16.00
2023-04-14T14:43:31.999Z,16.40
2023-04-14T14:45:59.116Z,16.50
2023-04-14T14:48:26.346Z,16.50
2023-04-14T14:50:53.324Z,16.80
2023-04-14T14:53:20.346Z,16.60
2023-04-14T14:55:47.420Z,16.70
2023-04-14T14:58:14.414Z,16.60
2023-04-14T15:00:41.681Z,16.30
2023-04-14T15:03:09.324Z,16.10
2023-04-14T15:05:36.440Z,16.10
2023-04-14T15:08:03.832Z,16.10
2023-04-14T15:10:30.932Z,16.00
2023-04-14T15:12:57.831Z,15.90
2023-04-14T15:15:25.108Z,15.80
2023-04-14T15:17:51.979Z,15.80
2023-04-14T15:20:18.902Z,15.80
2023-04-14T15:22:45.829Z,15.50
2023-04-14T15:25:13.160Z,15.20
2023-04-14T15:27:40.077Z,14.90
2023-04-14T15:30:07.736Z,14.90
2023-04-14T15:32:34.742Z,15.20
2023-04-14T15:35:01.962Z,15.50
2023-04-14T15:37:28.899Z,15.90
2023-04-14T15:39:56.111Z,15.50
2023-04-14T15:42:23.022Z,15.30
2023-04-14T15:44:51.253Z,15.80
2023-04-14T15:47:18.658Z,16.40
2023-04-14T15:49:48.262Z,17.10
2023-04-14T15:52:16.963Z,17.90
2023-04-14T15:54:44.188Z,18.90
2023-04-14T15:57:11.277Z,19.60
2023-04-14T15:59:38.510Z,20.20
2023-04-14T16:02:05.563Z,20.70
2023-04-14T16:04:32.738Z,20.80
2023-04-14T16:06:59.745Z,20.70
2023-04-14T16:09:26.743Z,21.00
2023-04-14T16:11:53.741Z,21.50
2023-04-14T16:14:21.210Z,21.90
2023-04-14T16:16:48.145Z,22.10
2023-04-14T16:19:16.206Z,22.00
2023-04-14T16:21:43.249Z,22.20
2023-04-14T16:24:10.706Z,22.30
2023-04-14T16:26:38.451Z,22.60
2023-04-14T16:29:05.778Z,23.10
2023-04-14T16:31:32.890Z,23.60
2023-04-14T16:34:00.309Z,23.90
2023-04-14T16:36:27.604Z,24.00
2023-04-14T16:38:54.913Z,24.60
2023-04-14T16:41:22.655Z,24.90
2023-04-14T16:43:49.620Z,24.60
2023-04-14T16:46:16.739Z,24.30
2023-04-14T16:48:43.764Z,24.60
2023-04-14T16:51:11.331Z,24.60
2023-04-14T16:53:38.978Z,24.60
2023-04-14T16:56:09.933Z,24.90
2023-04-14T16:58:38.246Z,25.00
2023-04-14T17:01:06.557Z,24.80
2023-04-14T17:03:34.197Z,25.00
2023-04-14T17:06:01.344Z,25.20
2023-04-14T17:08:28.413Z,25.60
2023-04-14T17:10:55.307Z,25.20
2023-04-14T17:13:22.262Z,25.10
2023-04-14T17:16:05.588Z,25.30
2023-04-14T17:18:35.291Z,25.40
2023-04-14T17:21:06.660Z,25.50
2023-04-14T17:23:37.802Z,25.80
2023-04-14T17:26:05.672Z,26.10
2023-04-14T17:28:34.421Z,26.10
2023-04-14T17:31:01.664Z,26.10
2023-04-14T17:33:29.195Z,26.20
2023-04-14T17:35:56.319Z,26.60
2023-04-14T17:38:23.620Z,27.00
2023-04-14T17:40:51.838Z,27.20
2023-04-14T17:43:18.817Z,26.90
2023-04-14T17:45:51.990Z,26.80
2023-04-14T17:48:19.982Z,27.30
2023-04-14T17:50:47.037Z,27.40
2023-04-14T17:53:16.255Z,28.10
2023-04-14T17:55:43.880Z,28.60
2023-04-14T17:58:10.895Z,29.30
2023-04-14T18:00:38.012Z,30.00
2023-04-14T18:03:05.067Z,30.80
2023-04-14T18:05:32.249Z,31.60
2023-04-14T18:07:59.232Z,32.10
2023-04-14T18:10:26.461Z,32.40
2023-04-14T18:12:53.403Z,32.70
2023-04-14T18:15:20.497Z,32.80
2023-04-14T18:17:47.683Z,33.20
2023-04-14T18:20:15.665Z,33.50
2023-04-14T18:22:43.299Z,33.60
2023-04-14T18:25:10.459Z,34.00
2023-04-14T18:30:08.646Z,34.60
2023-04-14T18:32:35.780Z,34.70
2023-04-14T18:35:02.790Z,35.20
2023-04-14T18:37:29.658Z,35.20
2023-04-14T18:39:57.043Z,35.20
2023-04-14T18:42:24.331Z,35.50
2023-04-14T18:44:53.162Z,36.00
2023-04-14T18:47:20.034Z,36.30
2023-04-14T18:49:47.047Z,36.50
2023-04-14T18:52:13.938Z,36.70
2023-04-14T18:54:40.900Z,37.20
2023-04-14T18:57:07.862Z,36.90
2023-04-14T18:59:34.799Z,36.70
2023-04-14T19:02:02.060Z,36.40
2023-04-14T19:04:29.441Z,36.30
2023-04-14T19:06:56.415Z,36.40
2023-04-14T19:09:24.544Z,36.50
2023-04-14T19:11:51.530Z,36.60
2023-04-14T19:14:18.491Z,36.80
2023-04-14T19:16:45.495Z,37.00
2023-04-14T19:19:12.506Z,37.20
2023-04-14T19:21:39.388Z,37.70
2023-04-14T19:24:06.437Z,38.40
2023-04-14T19:26:34.506Z,38.90
2023-04-14T19:29:01.817Z,39.30
2023-04-14T19:31:29.167Z,39.80
2023-04-14T19:33:56.672Z,40.20
2023-04-14T19:36:23.935Z,40.20
2023-04-14T19:38:51.735Z,40.00
2023-04-14T19:41:19.498Z,40.20
2023-04-14T19:43:46.889Z,40.50
2023-04-14T19:46:13.974Z,40.70
2023-04-14T19:48:40.934Z,40.90
2023-04-14T19:51:09.086Z,41.20
2023-04-14T19:53:36.531Z,41.40
2023-04-14T19:56:05.816Z,42.40
2023-04-14T19:58:33.088Z,42.10
2023-04-14T20:01:00.990Z,42.10
2023-04-14T20:03:28.675Z,42.20
2023-04-14T20:05:58.878Z,42.00
2023-04-14T20:08:27.692Z,41.70
2023-04-14T20:10:55.127Z,41.50
2023-04-14T20:13:24.436Z,41.60
2023-04-14T20:15:54.908Z,41.60
2023-04-14T20:18:26.081Z,41.30
2023-04-14T20:20:54.782Z,41.00
2023-04-14T20:23:23.038Z,41.30
2023-04-14T20:25:50.759Z,42.20
2023-04-14T20:28:19.632Z,41.90
2023-04-14T20:30:49.422Z,42.00
2023-04-14T20:33:18.519Z,42.00
2023-04-14T20:35:45.807Z,42.10
2023-04-14T20:38:15.324Z,42.10
2023-04-14T20:40:42.629Z,42.10
2023-04-14T20:43:09.604Z,42.10
2023-04-14T20:45:36.748Z,41.90
2023-04-14T20:48:03.947Z,41.90
2023-04-14T20:50:33.571Z,41.90
2023-04-14T20:53:00.621Z,41.50
2023-04-14T20:55:27.927Z,41.50
2023-04-14T20:57:54.944Z,41.90
2023-04-14T21:00:22.055Z,41.90
2023-04-14T21:02:51.858Z,42.00
2023-04-14T21:05:19.969Z,42.20
2023-04-14T21:07:47.728Z,42.30
2023-04-14T21:10:15.507Z,43.30
2023-04-14T21:15:26.999Z,43.00
2023-04-14T21:15:51.607Z,43.30
2023-04-14T21:18:16.871Z,43.80
2023-04-14T21:20:43.782Z,44.20
2023-04-14T21:23:10.847Z,44.60
2023-04-14T21:25:37.868Z,44.90
2023-04-14T21:28:05.199Z,45.30
2023-04-14T21:30:32.204Z,45.50
2023-04-14T21:32:59.250Z,45.90
2023-04-14T21:35:26.492Z,46.00
2023-04-14T21:37:53.452Z,45.80
2023-04-14T21:40:21.513Z,45.70
2023-04-14T21:42:48.614Z,45.60
2023-04-14T21:45:15.757Z,45.60
2023-04-14T21:47:42.847Z,45.50
2023-04-14T21:50:10.593Z,45.50
2023-04-14T21:52:37.632Z,45.90
2023-04-14T21:55:05.081Z,46.10
2023-04-14T21:57:43.589Z,46.40
2023-04-14T22:00:20.343Z,46.50
2023-04-14T22:02:47.707Z,46.70
2023-04-14T22:05:15.705Z,46.90
2023-04-14T22:07:42.661Z,47.10
2023-04-14T22:10:12.366Z,47.30
2023-04-14T22:12:43.654Z,47.70
2023-04-14T22:15:10.824Z,48.40
2023-04-14T22:17:38.999Z,48.00
2023-04-14T22:20:07.173Z,48.00
2023-04-14T22:22:34.789Z,48.20
2023-04-14T22:25:03.537Z,48.50
2023-04-14T22:27:30.808Z,48.60
2023-04-14T22:29:57.919Z,48.50
2023-04-14T22:32:25.734Z,48.50
2023-04-14T22:34:52.999Z,49.20
2023-04-14T22:37:19.925Z,48.60
2023-04-14T22:39:46.902Z,49.00
2023-04-14T22:42:13.828Z,49.80
2023-04-14T22:44:41.231Z,49.40
2023-04-14T22:47:08.283Z,49.70
2023-04-14T22:49:35.252Z,49.90
2023-04-14T22:52:02.302Z,50.10
2023-04-14T22:54:29.229Z,50.20
2023-04-14T22:56:56.463Z,50.20
2023-04-14T22:59:24.209Z,50.30
2023-04-14T23:01:53.029Z,50.50
2023-04-14T23:04:20.388Z,50.50
2023-04-14T23:06:47.372Z,50.50
2023-04-14T23:09:14.307Z,50.90
2023-04-14T23:11:41.271Z,50.80
2023-04-14T23:14:08.190Z,50.90
2023-04-14T23:16:35.211Z,51.00
2023-04-14T23:19:02.533Z,50.90
2023-04-14T23:21:30.239Z,50.90
2023-04-14T23:23:57.199Z,51.00
2023-04-14T23:26:24.997Z,51.00
2023-04-14T23:28:53.023Z,51.00
2023-04-14T23:31:20.087Z,51.10
2023-04-14T23:33:49.525Z,51.10
2023-04-14T23:36:16.717Z,51.10
2023-04-14T23:38:43.801Z,51.30
2023-04-14T23:41:11.199Z,51.40
2023-04-14T23:43:38.167Z,51.60
2023-04-14T23:46:05.670Z,51.60
2023-04-14T23:48:32.705Z,51.60
2023-04-14T23:51:03.938Z,51.70
2023-04-14T23:53:42.804Z,51.80
2023-04-14T23:56:09.759Z,51.80
2023-04-14T23:58:37.328Z,51.90
